Time;durP1;ratioP1;P1;durP2;ratioP2;P2;SDS_P1;SDS_P2;PMS_P1;PMS_P2;Temp;Humidity;BMP_temperature;BMP_pressure;BME280_temperature;BME280_humidity;BME280_pressure;Samples;Min_cycle;Max_cycle;Signal;HPM_P1;HPM_P2
2023/06/08 00:01:35;;;;;;;15.88;9.02;;;11.80;99.90;;;;;;5027428;28;20045;-84
2023/06/08 00:04:05;;;;;;;15.98;10.00;;;11.80;99.90;;;;;;5028112;28;20049;-83
2023/06/08 00:06:33;;;;;;;16.00;8.73;;;11.80;99.90;;;;;;5029803;28;20041;-83
2023/06/08 00:09:01;;;;;;;17.33;9.50;;;11.90;99.90;;;;;;5026787;28;20048;-83
2023/06/08 00:11:27;;;;;;;19.58;8.95;;;11.80;99.90;;;;;;5024648;28;20037;-84
2023/06/08 00:13:53;;;;;;;15.57;7.85;;;11.80;99.90;;;;;;5027423;28;20049;-83
2023/06/08 00:16:18;;;;;;;13.10;7.90;;;11.80;99.90;;;;;;5028391;28;20048;-83
2023/06/08 00:18:44;;;;;;;18.40;7.90;;;11.80;99.90;;;;;;5027577;28;20046;-84
2023/06/08 00:21:12;;;;;;;17.70;7.97;;;11.90;99.90;;;;;;5026000;28;20033;-81
2023/06/08 00:23:38;;;;;;;18.00;7.80;;;11.90;99.90;;;;;;5025020;28;20056;-83
2023/06/08 00:26:04;;;;;;;16.58;8.80;;;11.90;99.90;;;;;;5026088;28;20128;-83
2023/06/08 00:28:30;;;;;;;15.77;8.75;;;11.90;99.90;;;;;;5029110;28;20112;-83
2023/06/08 00:30:55;;;;;;;14.48;8.90;;;11.90;99.90;;;;;;5027857;28;20048;-84
2023/06/08 00:33:21;;;;;;;14.88;9.07;;;11.90;99.90;;;;;;5012055;28;20051;-83
2023/06/08 00:35:46;;;;;;;14.25;9.35;;;11.90;99.90;;;;;;5027349;28;20048;-84
2023/06/08 00:38:12;;;;;;;14.38;9.15;;;11.80;99.90;;;;;;5025399;28;20092;-83
2023/06/08 00:40:37;;;;;;;14.95;8.93;;;12.00;99.90;;;;;;5027340;28;20033;-84
2023/06/08 00:43:03;;;;;;;13.38;8.40;;;11.90;99.90;;;;;;5025061;28;20033;-83
2023/06/08 00:45:28;;;;;;;17.77;9.77;;;11.90;99.90;;;;;;5027802;28;20049;-84
2023/06/08 00:47:54;;;;;;;16.08;9.35;;;11.90;99.90;;;;;;5027266;28;20627;-82
2023/06/08 00:50:20;;;;;;;14.00;8.48;;;11.80;99.90;;;;;;5028015;28;20484;-83
2023/06/08 00:52:46;;;;;;;18.17;8.77;;;11.80;99.90;;;;;;5012485;28;20064;-83
2023/06/08 00:55:12;;;;;;;22.35;10.25;;;11.80;99.90;;;;;;5025603;28;20095;-84
2023/06/08 00:57:38;;;;;;;18.02;8.75;;;11.80;99.90;;;;;;5009317;28;20087;-84
2023/06/08 01:00:07;;;;;;;16.02;8.30;;;11.80;99.90;;;;;;5028827;28;20049;-84
2023/06/08 01:02:34;;;;;;;23.65;10.23;;;11.80;99.90;;;;;;5028265;28;20042;-83
2023/06/08 01:05:02;;;;;;;18.17;10.10;;;11.80;99.90;;;;;;5027624;28;20045;-83
2023/06/08 01:07:53;;;;;;;23.85;9.45;;;11.80;99.90;;;;;;5027373;28;20041;-84
2023/06/08 01:10:28;;;;;;;15.75;8.73;;;11.80;99.90;;;;;;5026344;28;20532;-82
2023/06/08 01:13:21;;;;;;;17.17;8.53;;;11.80;99.90;;;;;;5025742;28;20136;-83
2023/06/08 01:15:51;;;;;;;16.92;9.18;;;11.80;99.90;;;;;;5025748;28;20041;-83
2023/06/08 01:18:22;;;;;;;17.27;8.75;;;11.70;99.90;;;;;;5022617;28;20045;-83
2023/06/08 01:21:24;;;;;;;17.65;9.80;;;11.80;99.90;;;;;;5027638;28;20111;-84
2023/06/08 01:23:54;;;;;;;19.13;10.02;;;11.80;99.90;;;;;;5024154;28;20041;-84
2023/06/08 01:26:22;;;;;;;19.95;8.90;;;11.80;99.90;;;;;;5027562;28;20183;-83
2023/06/08 01:28:49;;;;;;;19.17;9.38;;;11.70;99.90;;;;;;5005438;28;20116;-84
2023/06/08 01:31:15;;;;;;;16.77;9.27;;;11.80;99.90;;;;;;5027194;28;20691;-84
2023/06/08 01:33:42;;;;;;;20.60;9.55;;;11.80;99.90;;;;;;5028233;28;20068;-84
2023/06/08 01:36:25;;;;;;;11.75;9.38;;;11.80;99.90;;;;;;5027683;28;20155;-84
2023/06/08 01:39:20;;;;;;;19.42;10.18;;;11.80;99.90;;;;;;5024419;28;20072;-84
2023/06/08 01:41:49;;;;;;;17.77;9.05;;;11.80;99.90;;;;;;5025735;28;20049;-84
2023/06/08 01:44:18;;;;;;;16.58;8.68;;;11.80;99.90;;;;;;5024092;28;20048;-84
2023/06/08 01:46:54;;;;;;;18.13;9.45;;;11.80;99.90;;;;;;5023613;28;20073;-83
2023/06/08 01:49:20;;;;;;;16.25;9.52;;;11.80;99.90;;;;;;5029862;28;20033;-84
2023/06/08 01:51:46;;;;;;;22.15;9.23;;;11.80;99.90;;;;;;5028870;28;20073;-83
2023/06/08 01:54:13;;;;;;;17.00;9.57;;;11.80;99.90;;;;;;5028200;28;20488;-83
2023/06/08 01:56:39;;;;;;;19.98;8.95;;;11.90;99.90;;;;;;5028830;28;20041;-83
2023/06/08 01:59:05;;;;;;;17.73;10.00;;;11.90;99.90;;;;;;5029345;28;20056;-84
2023/06/08 02:01:30;;;;;;;18.48;9.75;;;11.90;99.90;;;;;;5030801;28;20041;-83
2023/06/08 02:03:56;;;;;;;19.00;10.07;;;11.90;99.90;;;;;;5027706;28;20136;-82
2023/06/08 02:06:22;;;;;;;16.00;9.95;;;11.90;99.90;;;;;;5031272;28;20057;-84
2023/06/08 02:08:47;;;;;;;15.23;9.55;;;11.90;99.90;;;;;;5029259;28;20484;-84
2023/06/08 02:11:13;;;;;;;15.60;8.70;;;11.90;99.90;;;;;;5028751;28;20566;-84
2023/06/08 02:13:40;;;;;;;14.50;8.52;;;11.90;99.90;;;;;;5029451;28;20037;-84
2023/06/08 02:16:06;;;;;;;18.90;8.75;;;11.90;99.90;;;;;;5011055;28;21542;-83
2023/06/08 02:18:34;;;;;;;16.23;9.73;;;11.80;99.90;;;;;;5028845;28;20056;-84
2023/06/08 02:21:01;;;;;;;19.83;9.32;;;11.90;99.90;;;;;;5030716;28;20045;-84
2023/06/08 02:23:26;;;;;;;20.23;9.38;;;11.90;99.90;;;;;;5028853;28;20045;-85
2023/06/08 02:25:52;;;;;;;21.33;9.32;;;11.90;99.90;;;;;;5027070;28;20037;-84
2023/06/08 02:28:17;;;;;;;18.63;9.15;;;11.90;99.90;;;;;;5029569;28;20069;-83
2023/06/08 02:30:43;;;;;;;18.83;10.52;;;11.90;99.90;;;;;;5029611;28;20056;-84
2023/06/08 02:33:08;;;;;;;20.33;10.48;;;11.90;99.90;;;;;;5025848;28;20044;-82
2023/06/08 02:35:36;;;;;;;20.10;10.73;;;11.90;99.90;;;;;;5029852;28;20037;-84
2023/06/08 02:38:01;;;;;;;20.85;10.93;;;11.90;99.90;;;;;;5030458;28;20034;-84
2023/06/08 02:40:27;;;;;;;19.23;10.75;;;11.90;99.90;;;;;;5009823;28;20037;-84
2023/06/08 02:42:53;;;;;;;20.13;10.98;;;11.90;99.90;;;;;;5028433;28;20048;-82
2023/06/08 02:45:19;;;;;;;16.95;10.05;;;12.10;99.90;;;;;;5046035;28;20049;-83
2023/06/08 02:47:44;;;;;;;16.00;10.48;;;11.90;99.90;;;;;;5028712;28;20119;-82
2023/06/08 02:50:10;;;;;;;21.42;11.05;;;11.90;99.90;;;;;;5028555;28;20048;-84
2023/06/08 02:52:35;;;;;;;25.42;12.27;;;11.90;99.90;;;;;;5030239;28;20033;-84
2023/06/08 02:55:01;;;;;;;22.65;11.68;;;11.90;99.90;;;;;;5025762;28;20042;-83
2023/06/08 02:57:26;;;;;;;22.95;12.90;;;11.90;99.90;;;;;;5027907;28;20045;-84
2023/06/08 02:59:52;;;;;;;24.95;11.80;;;11.90;99.90;;;;;;5029485;28;20045;-84
2023/06/08 03:02:18;;;;;;;19.38;11.13;;;11.90;99.90;;;;;;5029576;28;20041;-84
2023/06/08 03:04:44;;;;;;;17.08;9.43;;;11.90;99.90;;;;;;5040704;28;20057;-84
2023/06/08 03:07:15;;;;;;;21.80;10.75;;;11.80;99.90;;;;;;5012654;28;20040;-83
2023/06/08 03:09:42;;;;;;;24.38;10.20;;;11.80;99.90;;;;;;5028239;28;20436;-84
2023/06/08 03:12:09;;;;;;;17.77;9.98;;;11.80;99.90;;;;;;5027511;28;20056;-84
2023/06/08 03:14:36;;;;;;;15.00;9.48;;;11.70;99.90;;;;;;5029051;28;20038;-82
2023/06/08 03:17:03;;;;;;;17.55;9.40;;;11.80;99.90;;;;;;5029118;28;20527;-83
2023/06/08 03:19:32;;;;;;;17.63;9.48;;;11.80;99.90;;;;;;5027837;28;20108;-85
2023/06/08 03:22:04;;;;;;;22.85;10.32;;;11.60;99.90;;;;;;5028862;28;20047;-84
2023/06/08 03:24:32;;;;;;;19.00;9.70;;;11.70;99.90;;;;;;5028070;28;20046;-83
2023/06/08 03:26:58;;;;;;;18.02;10.48;;;11.70;99.90;;;;;;5030760;28;20056;-85
2023/06/08 03:29:25;;;;;;;27.17;11.07;;;11.70;99.90;;;;;;5030066;28;20064;-83
2023/06/08 03:31:51;;;;;;;19.85;10.27;;;11.70;99.90;;;;;;5027465;28;20496;-84
2023/06/08 03:34:17;;;;;;;19.83;11.45;;;11.70;99.90;;;;;;5028330;28;20116;-83
2023/06/08 03:36:43;;;;;;;17.48;9.90;;;11.60;99.90;;;;;;5028239;28;20412;-84
2023/06/08 03:39:09;;;;;;;17.40;11.05;;;11.60;99.90;;;;;;5026676;28;20048;-84
2023/06/08 03:41:35;;;;;;;21.15;10.40;;;11.70;99.90;;;;;;5027369;28;20038;-82
2023/06/08 03:44:01;;;;;;;16.10;11.43;;;11.70;99.90;;;;;;5029652;28;20045;-84
2023/06/08 03:46:27;;;;;;;17.70;11.75;;;11.50;99.90;;;;;;5010042;28;20079;-83
2023/06/08 03:48:53;;;;;;;21.65;11.18;;;11.60;99.90;;;;;;5025572;28;20046;-84
2023/06/08 03:51:23;;;;;;;19.50;11.27;;;11.60;99.90;;;;;;5029299;28;20052;-82
2023/06/08 03:53:50;;;;;;;23.60;12.85;;;11.60;99.90;;;;;;5025443;28;20623;-83
2023/06/08 03:56:16;;;;;;;15.88;10.57;;;11.70;99.90;;;;;;5027200;28;20171;-84
2023/06/08 03:58:41;;;;;;;27.08;11.23;;;11.60;99.90;;;;;;5026156;28;20045;-83
2023/06/08 04:01:09;;;;;;;15.98;9.18;;;11.60;99.90;;;;;;5029420;28;20053;-84
2023/06/08 04:03:34;;;;;;;18.52;10.52;;;11.60;99.90;;;;;;5028926;28;20083;-83
2023/06/08 04:06:00;;;;;;;19.85;10.90;;;11.60;99.90;;;;;;5028462;28;20116;-84
2023/06/08 04:08:26;;;;;;;21.23;10.75;;;11.80;99.90;;;;;;5026761;28;20662;-83
2023/06/08 04:10:52;;;;;;;18.70;12.65;;;11.60;99.90;;;;;;5028107;28;20044;-83
2023/06/08 04:13:17;;;;;;;20.08;12.73;;;11.70;99.90;;;;;;5027137;28;20045;-83
2023/06/08 04:15:43;;;;;;;24.52;13.88;;;11.70;99.90;;;;;;5025678;28;20510;-85
2023/06/08 04:18:08;;;;;;;23.60;11.52;;;11.70;99.90;;;;;;5027867;28;20045;-85
2023/06/08 04:20:35;;;;;;;22.33;10.93;;;11.60;99.90;;;;;;5025258;28;20117;-84
2023/06/08 04:23:01;;;;;;;18.83;12.13;;;11.60;99.90;;;;;;5026443;28;20112;-84
2023/06/08 04:25:26;;;;;;;25.40;12.02;;;11.60;99.90;;;;;;5025789;28;20174;-84
2023/06/08 04:27:52;;;;;;;24.15;11.93;;;11.60;99.90;;;;;;5027525;28;20488;-82
2023/06/08 04:30:18;;;;;;;20.27;10.73;;;11.60;99.90;;;;;;5026661;28;20061;-82
2023/06/08 04:32:45;;;;;;;20.42;11.20;;;11.70;99.90;;;;;;5030321;28;20030;-83
2023/06/08 04:35:11;;;;;;;16.45;10.48;;;11.70;99.90;;;;;;5026765;28;20072;-84
2023/06/08 04:37:37;;;;;;;19.92;10.05;;;11.60;99.90;;;;;;5012451;28;20037;-84
2023/06/08 04:40:04;;;;;;;22.15;10.85;;;11.70;99.90;;;;;;5013367;28;20049;-84
2023/06/08 04:42:37;;;;;;;17.05;10.25;;;11.60;99.90;;;;;;5011512;28;20043;-84
2023/06/08 04:45:03;;;;;;;20.50;9.43;;;11.60;99.90;;;;;;5029539;28;20049;-84
2023/06/08 04:47:29;;;;;;;18.90;9.07;;;11.70;99.90;;;;;;5030222;28;20049;-84
2023/06/08 04:49:56;;;;;;;19.05;9.70;;;12.30;99.90;;;;;;5028129;28;20052;-84
2023/06/08 04:52:22;;;;;;;15.98;9.20;;;11.80;99.90;;;;;;5028240;28;20052;-84
2023/06/08 04:54:52;;;;;;;14.70;8.90;;;11.80;99.90;;;;;;5011268;28;20045;-84
2023/06/08 04:57:21;;;;;;;14.65;8.70;;;11.90;99.90;;;;;;5026933;28;20057;-84
2023/06/08 04:59:47;;;;;;;15.10;7.80;;;11.90;99.90;;;;;;5029944;28;20037;-83
2023/06/08 05:02:13;;;;;;;16.40;7.88;;;11.90;99.90;;;;;;5031332;28;20030;-83
2023/06/08 05:04:38;;;;;;;18.20;8.23;;;12.00;99.90;;;;;;5028616;28;20041;-84
2023/06/08 05:07:05;;;;;;;14.57;8.90;;;12.00;99.90;;;;;;5032177;28;20063;-84
2023/06/08 05:09:30;;;;;;;14.13;8.60;;;12.00;99.90;;;;;;5029832;28;20049;-85
2023/06/08 05:11:56;;;;;;;18.52;9.60;;;12.40;99.90;;;;;;5029199;28;20095;-83
2023/06/08 05:14:22;;;;;;;20.67;8.15;;;12.10;99.90;;;;;;5030240;28;20049;-85
2023/06/08 05:16:47;;;;;;;13.88;7.82;;;12.20;99.90;;;;;;5032541;28;20120;-85
2023/06/08 05:19:13;;;;;;;18.08;8.35;;;12.40;99.90;;;;;;5028929;28;20049;-85
2023/06/08 05:21:40;;;;;;;16.13;8.35;;;12.50;99.90;;;;;;5028533;28;20041;-84
2023/06/08 05:24:07;;;;;;;14.32;7.10;;;12.90;99.90;;;;;;5010747;28;20037;-82
2023/06/08 05:26:36;;;;;;;15.40;7.65;;;12.80;99.90;;;;;;5031756;28;20029;-84
2023/06/08 05:29:22;;;;;;;15.32;6.70;;;13.70;99.90;;;;;;5026752;28;20468;-84
2023/06/08 05:32:30;;;;;;;16.08;7.18;;;13.40;99.90;;;;;;5028881;28;20430;-83
2023/06/08 05:35:22;;;;;;;16.48;7.63;;;13.60;99.90;;;;;;5032690;28;20049;-84
2023/06/08 05:37:47;;;;;;;16.65;6.90;;;13.80;99.90;;;;;;5016570;28;20044;-84
2023/06/08 05:40:14;;;;;;;13.45;7.00;;;13.90;99.90;;;;;;5012824;28;20045;-83
2023/06/08 05:42:40;;;;;;;13.88;6.20;;;14.10;99.90;;;;;;5031074;28;20041;-85
2023/06/08 05:45:06;;;;;;;18.13;6.35;;;14.40;99.90;;;;;;5028755;28;20095;-83
2023/06/08 05:47:31;;;;;;;11.48;6.05;;;14.70;99.90;;;;;;5026568;28;20045;-84
2023/06/08 05:49:57;;;;;;;13.57;6.85;;;14.90;99.90;;;;;;5013152;28;20033;-84
2023/06/08 05:52:22;;;;;;;11.00;5.75;;;15.10;99.90;;;;;;5027527;28;20037;-84
2023/06/08 05:54:48;;;;;;;12.30;5.75;;;15.30;99.90;;;;;;5029353;28;20052;-84
2023/06/08 05:57:13;;;;;;;12.27;5.80;;;15.50;99.90;;;;;;5028478;28;20044;-84
2023/06/08 05:59:39;;;;;;;12.00;6.45;;;15.70;99.90;;;;;;5031139;28;20132;-84
2023/06/08 06:02:05;;;;;;;10.77;5.65;;;15.90;99.90;;;;;;5029254;28;20460;-83
2023/06/08 06:04:41;;;;;;;13.82;5.43;;;16.00;99.90;;;;;;5027887;28;20424;-83
2023/06/08 06:07:06;;;;;;;;;;;16.20;99.90;;;;;;5027637;28;20037;-83
2023/06/08 06:09:32;;;;;;;11.65;4.93;;;16.40;99.90;;;;;;5029798;28;19924;-84
2023/06/08 06:11:58;;;;;;;13.82;5.20;;;16.60;99.90;;;;;;5029659;28;20041;-84
2023/06/08 06:14:23;;;;;;;13.60;5.35;;;16.70;99.90;;;;;;5027235;28;20053;-83
2023/06/08 06:16:49;;;;;;;11.90;5.13;;;16.90;99.90;;;;;;5027437;28;20041;-84
2023/06/08 06:19:15;;;;;;;13.98;5.95;;;17.10;99.90;;;;;;5029421;28;20164;-84
2023/06/08 06:21:40;;;;;;;12.00;5.25;;;17.10;99.90;;;;;;5027159;28;20037;-84
2023/06/08 06:24:06;;;;;;;17.88;6.35;;;17.00;99.90;;;;;;5027975;28;20053;-84
2023/06/08 06:26:32;;;;;;;12.00;5.72;;;17.00;99.90;;;;;;5009867;28;20037;-83
2023/06/08 06:28:59;;;;;;;12.98;5.93;;;17.20;99.90;;;;;;5029725;28;20049;-82
2023/06/08 06:31:25;;;;;;;9.65;5.20;;;17.30;99.90;;;;;;5025845;28;20487;-83
2023/06/08 06:33:51;;;;;;;16.42;5.70;;;17.40;99.90;;;;;;5027316;28;20111;-84
2023/06/08 06:36:16;;;;;;;11.27;5.25;;;17.50;99.90;;;;;;5013840;28;20041;-85
2023/06/08 06:38:42;;;;;;;9.50;4.20;;;17.70;99.90;;;;;;5031588;28;20091;-83
2023/06/08 06:41:07;;;;;;;13.48;4.72;;;17.70;99.90;;;;;;5033035;28;20495;-84
2023/06/08 06:43:33;;;;;;;13.65;5.55;;;17.90;99.90;;;;;;5032791;28;20040;-84
2023/06/08 06:45:59;;;;;;;19.40;5.57;;;17.90;99.90;;;;;;5029820;28;20112;-84
2023/06/08 06:48:24;;;;;;;9.65;4.18;;;18.10;99.90;;;;;;5015757;28;20091;-85
2023/06/08 06:50:50;;;;;;;13.02;4.57;;;18.20;99.90;;;;;;5031503;28;20124;-84
2023/06/08 06:53:16;;;;;;;10.63;3.95;;;18.40;99.90;;;;;;5015540;28;20125;-83
2023/06/08 06:55:41;;;;;;;13.63;5.32;;;18.80;99.90;;;;;;5031611;28;20041;-83
2023/06/08 06:58:08;;;;;;;10.32;4.75;;;18.50;99.90;;;;;;5015299;28;20037;-82
2023/06/08 07:00:37;;;;;;;11.20;4.68;;;18.50;99.90;;;;;;5030775;28;20053;-82
2023/06/08 07:03:07;;;;;;;11.32;3.97;;;18.60;99.90;;;;;;5032973;28;20381;-84
2023/06/08 07:05:33;;;;;;;10.63;3.75;;;18.70;99.90;;;;;;5030404;28;20353;-84
2023/06/08 07:07:59;;;;;;;11.82;3.63;;;18.70;99.90;;;;;;5032412;28;20041;-84
2023/06/08 07:10:25;;;;;;;8.68;3.40;;;18.70;99.90;;;;;;5009678;28;20045;-85
2023/06/08 07:12:50;;;;;;;12.80;3.63;;;19.00;99.90;;;;;;5015349;28;20093;-84
2023/06/08 07:15:17;;;;;;;7.85;3.85;;;19.00;99.90;;;;;;5030802;28;20045;-84
2023/06/08 07:17:44;;;;;;;13.95;4.05;;;19.10;99.90;;;;;;5014761;28;20038;-84
2023/06/08 07:20:10;;;;;;;9.55;3.45;;;18.90;99.90;;;;;;5030561;28;20096;-84
2023/06/08 07:22:35;;;;;;;10.45;4.57;;;19.10;99.90;;;;;;5015258;28;20099;-84
2023/06/08 07:25:02;;;;;;;7.93;3.63;;;19.10;99.90;;;;;;5029994;28;20488;-84
2023/06/08 07:27:27;;;;;;;9.65;3.50;;;19.20;99.90;;;;;;5031382;28;20506;-85
2023/06/08 07:29:55;;;;;;;8.68;3.85;;;19.30;99.90;;;;;;5030603;28;20037;-84
2023/06/08 07:32:20;;;;;;;9.82;3.78;;;19.40;99.90;;;;;;5030172;28;20045;-84
2023/06/08 07:34:47;;;;;;;11.65;4.28;;;19.50;99.90;;;;;;5030135;28;20037;-83
2023/06/08 07:37:13;;;;;;;11.50;4.53;;;19.50;99.90;;;;;;5032845;28;20434;-82
2023/06/08 07:39:38;;;;;;;8.07;3.63;;;19.50;99.90;;;;;;5029917;28;20041;-83
2023/06/08 07:42:05;;;;;;;15.10;4.40;;;19.40;99.90;;;;;;5030648;28;20075;-84
2023/06/08 07:44:31;;;;;;;13.38;3.90;;;19.60;99.90;;;;;;5031649;28;20050;-84
2023/06/08 07:46:56;;;;;;;13.40;3.83;;;19.80;99.90;;;;;;5029113;28;20037;-84
2023/06/08 07:49:23;;;;;;;14.15;4.38;;;19.80;99.90;;;;;;5013577;28;20495;-84
2023/06/08 07:51:49;;;;;;;8.45;3.20;;;20.00;99.90;;;;;;5015864;28;20045;-84
2023/06/08 07:54:19;;;;;;;13.10;3.58;;;20.00;99.90;;;;;;5031728;28;20373;-83
2023/06/08 07:56:48;;;;;;;10.35;4.85;;;20.20;99.90;;;;;;5027263;28;20416;-82
2023/06/08 07:59:14;;;;;;;10.77;3.90;;;20.30;99.90;;;;;;5028730;28;20456;-84
2023/06/08 10:30:28;;;;;;;9.85;3.85;;;22.30;99.90;;;;;;5037466;28;20745;-84
2023/06/08 10:32:55;;;;;;;13.93;4.40;;;22.20;99.90;;;;;;5038222;28;20575;-85
2023/06/08 10:35:22;;;;;;;12.30;3.53;;;22.20;99.90;;;;;;5039010;28;20087;-83
2023/06/08 10:37:48;;;;;;;12.27;3.92;;;22.40;99.90;;;;;;5038664;28;20061;-85
2023/06/08 10:40:13;;;;;;;7.22;3.42;;;22.50;99.90;;;;;;5035740;28;20065;-84
2023/06/08 10:42:59;;;;;;;12.75;3.72;;;22.60;99.90;;;;;;5038327;28;20033;-84
2023/06/08 10:45:31;;;;;;;13.15;3.70;;;22.60;99.90;;;;;;5031157;28;20138;-84
2023/06/08 10:48:02;;;;;;;10.63;3.95;;;22.60;99.90;;;;;;5034438;28;20037;-84
2023/06/08 10:50:30;;;;;;;15.38;3.88;;;22.50;99.90;;;;;;5021904;28;20044;-85
2023/06/08 10:52:58;;;;;;;10.70;3.35;;;22.60;99.90;;;;;;5039702;28;20041;-84
2023/06/08 10:55:25;;;;;;;12.98;3.47;;;23.00;99.90;;;;;;5011876;28;20049;-84
2023/06/08 10:57:53;;;;;;;10.43;3.80;;;22.80;99.90;;;;;;5018085;28;20132;-83
2023/06/08 11:00:29;;;;;;;9.32;3.42;;;22.80;99.90;;;;;;5035258;28;20148;-83
2023/06/08 11:02:56;;;;;;;11.77;4.18;;;22.80;99.90;;;;;;5017160;28;20073;-84
2023/06/08 11:05:23;;;;;;;11.05;3.33;;;22.80;99.90;;;;;;5036021;28;20042;-84
2023/06/08 11:07:49;;;;;;;9.98;4.30;;;22.70;99.90;;;;;;5031812;28;20041;-84
2023/06/08 11:10:15;;;;;;;7.40;3.05;;;22.80;99.90;;;;;;5036555;28;20087;-83
2023/06/08 11:12:41;;;;;;;8.88;3.45;;;22.90;99.90;;;;;;5035092;28;20033;-83
2023/06/08 11:15:07;;;;;;;9.45;3.15;;;22.90;99.90;;;;;;5039216;28;20130;-85
2023/06/08 11:17:55;;;;;;;10.05;3.60;;;22.90;99.90;;;;;;5036473;28;20045;-84
2023/06/08 11:20:27;;;;;;;10.15;3.50;;;22.80;99.90;;;;;;5030934;28;20041;-84
2023/06/08 11:22:53;;;;;;;9.02;3.35;;;22.90;99.90;;;;;;5037040;28;20092;-84
2023/06/08 11:25:27;;;;;;;11.27;3.72;;;22.90;99.90;;;;;;5036740;28;20087;-83
2023/06/08 11:27:53;;;;;;;8.93;2.92;;;23.00;99.90;;;;;;5034881;28;20045;-84
2023/06/08 11:30:28;;;;;;;9.60;3.92;;;23.00;99.90;;;;;;5034565;28;20045;-83
2023/06/08 11:32:58;;;;;;;9.88;3.33;;;23.00;99.90;;;;;;5034268;28;20040;-84
2023/06/08 11:35:24;;;;;;;14.00;3.03;;;22.90;99.90;;;;;;5030310;28;20084;-83
2023/06/08 11:37:52;;;;;;;10.77;3.97;;;23.00;99.90;;;;;;5030471;28;20507;-83
2023/06/08 11:40:18;;;;;;;7.13;3.08;;;23.10;99.90;;;;;;5031565;28;20042;-84
2023/06/08 11:42:44;;;;;;;13.32;4.03;;;23.00;99.90;;;;;;5032620;28;20048;-83
2023/06/08 11:45:12;;;;;;;12.35;2.88;;;23.00;99.90;;;;;;5024703;28;20480;-84
2023/06/08 11:47:41;;;;;;;16.83;3.65;;;22.80;99.90;;;;;;5028749;28;20037;-83
2023/06/08 11:50:07;;;;;;;13.02;3.20;;;23.20;99.90;;;;;;5024891;28;20037;-84
2023/06/08 11:52:34;;;;;;;11.38;3.08;;;22.80;99.90;;;;;;5030532;28;20100;-84
2023/06/08 11:55:11;;;;;;;8.18;3.10;;;22.80;99.90;;;;;;5031978;28;20041;-83
2023/06/08 11:57:44;;;;;;;9.77;2.80;;;22.90;99.90;;;;;;5031531;28;20122;-83
2023/06/08 12:00:22;;;;;;;9.10;2.90;;;22.90;99.90;;;;;;5029580;28;20388;-83
2023/06/08 12:02:59;;;;;;;10.18;3.30;;;23.00;99.90;;;;;;5031061;28;20064;-83
2023/06/08 12:05:33;;;;;;;14.43;4.25;;;23.00;99.90;;;;;;5029991;28;20037;-83
2023/06/08 12:08:11;;;;;;;10.10;3.13;;;23.10;99.90;;;;;;5030225;28;20064;-83
2023/06/08 12:10:42;;;;;;;8.23;2.88;;;23.10;99.90;;;;;;5030050;28;20091;-83
2023/06/08 12:13:13;;;;;;;10.80;3.53;;;23.10;99.90;;;;;;5028003;28;20037;-84
2023/06/08 12:15:43;;;;;;;9.82;3.20;;;23.00;99.90;;;;;;5007074;28;20038;-81
2023/06/08 12:18:14;;;;;;;9.93;3.08;;;23.10;99.90;;;;;;5028675;28;20045;-84
2023/06/08 12:20:51;;;;;;;6.87;3.47;;;23.10;99.90;;;;;;5007826;28;20116;-82
2023/06/08 12:23:16;;;;;;;10.52;3.85;;;23.20;99.90;;;;;;5029880;28;20337;-82
2023/06/08 12:25:43;;;;;;;11.07;3.08;;;23.20;99.90;;;;;;5030356;28;20454;-82
2023/06/08 12:28:19;;;;;;;8.85;3.13;;;23.20;99.90;;;;;;5029004;28;20081;-84
2023/06/08 12:30:45;;;;;;;11.68;3.83;;;23.40;99.90;;;;;;5022973;28;20029;-83
2023/06/08 12:33:17;;;;;;;10.40;3.60;;;23.40;99.90;;;;;;5022587;28;20407;-82
2023/06/08 12:35:46;;;;;;;8.02;3.08;;;23.40;99.90;;;;;;5026349;28;20504;-82
2023/06/08 12:38:12;;;;;;;14.73;3.60;;;23.40;99.90;;;;;;5030418;28;20045;-84
2023/06/08 12:40:37;;;;;;;7.75;3.47;;;23.40;99.90;;;;;;5028243;28;20480;-84
2023/06/08 12:43:03;;;;;;;9.85;3.42;;;23.40;99.90;;;;;;5014906;28;20045;-83
2023/06/08 12:45:29;;;;;;;6.75;2.90;;;23.40;99.90;;;;;;5029055;28;20045;-82
2023/06/08 12:47:55;;;;;;;9.13;2.95;;;23.40;99.90;;;;;;5027225;28;20085;-83
2023/06/08 12:50:28;;;;;;;10.63;3.83;;;23.40;99.90;;;;;;5013814;28;20076;-84
2023/06/08 12:52:55;;;;;;;7.70;3.00;;;23.30;99.90;;;;;;5029004;28;20052;-85
2023/06/08 12:55:21;;;;;;;8.25;3.22;;;23.20;99.90;;;;;;5010499;28;20049;-84
2023/06/08 12:57:54;;;;;;;16.20;4.18;;;23.20;99.90;;;;;;5030220;28;20045;-84
2023/06/08 13:00:21;;;;;;;7.90;2.95;;;23.30;99.90;;;;;;5030329;28;20498;-82
2023/06/08 13:02:47;;;;;;;13.60;3.22;;;23.30;99.90;;;;;;5030252;28;20038;-84
2023/06/08 13:05:13;;;;;;;10.02;3.00;;;23.30;99.90;;;;;;5025201;28;20468;-84
2023/06/08 13:07:39;;;;;;;10.80;2.70;;;23.60;99.90;;;;;;5024495;28;20091;-84
2023/06/08 13:10:05;;;;;;;10.40;3.58;;;23.40;99.90;;;;;;5028091;28;20384;-84
2023/06/08 13:12:31;;;;;;;6.93;2.78;;;23.40;99.90;;;;;;5045866;28;20044;-84
2023/06/08 13:14:57;;;;;;;11.52;3.60;;;23.30;99.90;;;;;;5009968;28;20049;-83
2023/06/08 13:17:24;;;;;;;9.95;3.78;;;23.20;99.90;;;;;;5025808;28;20542;-84
2023/06/08 13:19:50;;;;;;;9.93;3.13;;;23.20;99.90;;;;;;5012571;28;20148;-82
2023/06/08 13:22:17;;;;;;;9.68;2.72;;;23.20;99.90;;;;;;5021716;28;20103;-83
2023/06/08 13:24:43;;;;;;;9.25;3.25;;;23.20;99.90;;;;;;5024710;28;20128;-83
2023/06/08 13:27:09;;;;;;;9.00;3.20;;;23.10;99.90;;;;;;5024999;28;20116;-84
2023/06/08 13:29:35;;;;;;;6.65;2.70;;;23.00;99.90;;;;;;5026559;28;20037;-83
2023/06/08 13:32:00;;;;;;;8.18;3.35;;;23.00;99.90;;;;;;5008234;28;20041;-83
2023/06/08 13:34:27;;;;;;;6.68;3.13;;;22.90;99.90;;;;;;5027593;28;20067;-84
2023/06/08 13:36:53;;;;;;;7.88;3.15;;;22.90;99.90;;;;;;5026994;28;20391;-85
2023/06/08 13:39:19;;;;;;;9.35;3.05;;;22.90;99.90;;;;;;5028449;28;20404;-84
2023/06/08 13:41:45;;;;;;;9.15;2.65;;;22.90;99.90;;;;;;5025894;28;20057;-83
2023/06/08 13:44:13;;;;;;;8.00;3.00;;;22.90;99.90;;;;;;5022832;28;20441;-84
2023/06/08 13:46:38;;;;;;;7.30;2.42;;;22.80;99.90;;;;;;5007037;28;20046;-84
2023/06/08 13:49:04;;;;;;;12.43;3.78;;;22.90;99.90;;;;;;5024172;28;20056;-84
2023/06/08 13:51:30;;;;;;;10.90;2.78;;;22.80;99.90;;;;;;5024108;28;20040;-84
2023/06/08 13:53:55;;;;;;;12.05;3.05;;;22.90;99.90;;;;;;5023005;28;20045;-83
2023/06/08 13:56:22;;;;;;;7.95;2.85;;;22.90;99.90;;;;;;5024934;28;20084;-82
2023/06/08 13:58:56;;;;;;;12.40;3.08;;;22.80;99.90;;;;;;5025188;28;20041;-84
2023/06/08 14:01:21;;;;;;;8.00;3.13;;;22.80;99.90;;;;;;5024593;28;20508;-84
2023/06/08 14:03:47;;;;;;;9.40;3.17;;;22.90;99.90;;;;;;5025187;28;20076;-84
2023/06/08 14:06:13;;;;;;;11.27;3.42;;;22.90;99.90;;;;;;5027978;28;20052;-83
2023/06/08 14:08:38;;;;;;;5.63;2.53;;;22.90;99.90;;;;;;5028337;28;20534;-83
2023/06/08 14:11:05;;;;;;;9.77;2.92;;;22.90;99.90;;;;;;5028936;28;20042;-84
2023/06/08 14:13:32;;;;;;;9.25;2.83;;;22.80;99.90;;;;;;5026518;28;20045;-84
2023/06/08 14:15:57;;;;;;;6.45;2.53;;;22.80;99.90;;;;;;5009627;28;20496;-83
2023/06/08 14:18:23;;;;;;;8.30;2.85;;;22.80;99.90;;;;;;5027307;28;20056;-85
2023/06/08 14:20:49;;;;;;;7.72;3.22;;;23.00;99.90;;;;;;5027156;28;20037;-84
2023/06/08 14:23:15;;;;;;;4.38;1.98;;;22.80;99.90;;;;;;5027513;28;20043;-83
2023/06/08 14:25:41;;;;;;;6.35;2.65;;;22.80;99.90;;;;;;5025439;28;20072;-83
2023/06/08 14:28:12;;;;;;;6.13;2.25;;;22.80;99.90;;;;;;5025599;28;20077;-84
2023/06/08 14:30:39;;;;;;;8.02;2.42;;;22.70;99.90;;;;;;5025192;28;20087;-84
2023/06/08 14:33:11;;;;;;;5.90;1.85;;;22.80;99.90;;;;;;5022779;28;20041;-83
2023/06/08 14:35:43;;;;;;;5.68;2.15;;;22.70;99.90;;;;;;5007559;28;20056;-84
2023/06/08 14:38:12;;;;;;;11.73;2.60;;;22.60;99.90;;;;;;5026356;28;20083;-83
2023/06/08 14:40:39;;;;;;;9.15;2.83;;;22.60;99.90;;;;;;5026003;28;20033;-82
2023/06/08 14:43:05;;;;;;;7.78;3.17;;;22.60;99.90;;;;;;5026263;28;20076;-83
2023/06/08 14:45:31;;;;;;;8.02;2.75;;;22.60;99.90;;;;;;5021858;28;20104;-83
2023/06/08 14:47:57;;;;;;;7.28;2.10;;;22.50;99.90;;;;;;5025315;28;20077;-83
2023/06/08 14:50:24;;;;;;;7.82;2.72;;;22.50;99.90;;;;;;5023863;28;20207;-84
2023/06/08 14:52:50;;;;;;;6.82;2.20;;;22.50;99.90;;;;;;5023850;28;20091;-83
2023/06/08 14:55:16;;;;;;;10.50;2.05;;;22.40;99.70;;;;;;5016700;28;20047;-80
2023/06/08 14:57:41;;;;;;;7.00;1.90;;;22.40;99.90;;;;;;5027035;28;20128;-83
2023/06/08 15:04:27;;;;;;;8.45;2.35;;;22.40;99.90;;;;;;4948798;28;20046;-82
2023/06/08 15:08:15;;;;;;;6.22;2.40;;;22.30;99.90;;;;;;4927870;29;20418;-84
2023/06/08 15:15:03;;;;;;;;;;;22.10;99.30;;;;;;4897526;28;20110;-82
2023/06/08 15:22:17;;;;;;;6.45;1.95;;;22.10;99.80;;;;;;4943656;28;20046;-83
2023/06/08 15:29:39;;;;;;;9.75;2.03;;;22.10;99.80;;;;;;4906677;29;20097;-83